Terminal Aerodrome Forecast
Issued by NWS

Home | Current Version | Previous Version | Text Only | Print | Product List | Glossary On
Versions: 1 2 3 4 5 6 7 8 9 10 11 12 13 14 15 16 17 18 19 20 21 22 23 24 25 26 27 28 29 30 31 32 33 34
000
FTUS46 KLOX 022340
TAFLAX
TAF
KLAX 022340Z 0300/0406 26011KT P6SM SCT250
     FM030500 26006KT P6SM BKN020
     FM030900 VRB03KT P6SM OVC025
     FM031800 24008KT P6SM BKN030
     FM032100 25012KT P6SM SCT030
     FM040300 26008KT P6SM BKN020=

USA.gov is the U.S. government's official web portal to all federal, state and local government web resources and services.